Archival Weather

Rochelle Muni/Koritz Fld

Rochelle, Illinois (KRPJ)

Report from: Sunday, February 5, 2023 7:15 AM CST
Current time: Monday, June 17, 2024 4:16 AM CDT

Current weather – Weather history – Daily summaries
Weather forecast

Temperature-2.6°C (27.3°F)
Wind chill-7.9°C (17.7°F)
Dew point-2.8°C (27.0°F)
Winds 9 kts (4.6 m/s, 10.4 mph) Southwest (230°)
Visibility10 mi. (16.1 km)
Clouds Sky clear
Altimeter29.85 in.Hg (1011 mB)
Relative humidity99 %
Density altitude-2,004 ft. (-611 m)
Remarks Fully automated report
Automated weather observing station with precipitation discriminator
Lightning detection system not operating
Flight conditions Visual Meteorological Conditions
Raw dataKRPJ 051315Z AUTO 23009KT 10SM CLR M03/M03 A2985 RMK AO2 T10261028 TSNO
An error has occurred. This application may no longer respond until reloaded. Reload 🗙